createdAt,value
2019-03-03T00:00:28.685Z,58.63
2019-03-03T00:03:01.975Z,57.74
2019-03-03T00:05:35.646Z,58.10
2019-03-03T00:08:09.294Z,59.51
2019-03-03T00:10:42.664Z,59.92
2019-03-03T00:13:16.087Z,60.31
2019-03-03T00:15:49.435Z,59.27
2019-03-03T00:18:23.125Z,54.92
2019-03-03T00:20:56.371Z,54.92
2019-03-03T00:23:29.670Z,55.44
2019-03-03T00:26:05.784Z,55.79
2019-03-03T00:28:39.040Z,57.17
2019-03-03T00:31:14.212Z,56.73
2019-03-03T00:33:48.081Z,55.33
2019-03-03T00:36:21.560Z,55.18
2019-03-03T00:38:54.951Z,55.27
2019-03-03T00:41:28.329Z,54.45
2019-03-03T00:44:04.023Z,53.84
2019-03-03T00:46:38.877Z,54.16
2019-03-03T00:49:12.398Z,54.19
2019-03-03T00:51:47.453Z,54.38
2019-03-03T00:54:21.726Z,52.97
2019-03-03T00:56:58.740Z,52.17
2019-03-03T00:59:32.529Z,52.40
2019-03-03T01:02:06.819Z,51.15
2019-03-03T01:04:40.352Z,51.12
2019-03-03T01:07:15.828Z,51.88
2019-03-03T01:09:50.007Z,51.34
2019-03-03T01:12:24.163Z,50.45
2019-03-03T01:14:57.792Z,50.12
2019-03-03T01:17:31.463Z,49.44
2019-03-03T01:20:05.554Z,48.53
2019-03-03T01:22:39.166Z,47.88
2019-03-03T01:25:12.944Z,46.98
2019-03-03T01:27:46.529Z,45.50
2019-03-03T01:30:21.932Z,44.88
2019-03-03T01:32:58.440Z,46.35
2019-03-03T01:35:33.087Z,45.53
2019-03-03T01:38:07.219Z,45.08
2019-03-03T01:40:43.835Z,45.01
2019-03-03T01:43:17.130Z,45.05
2019-03-03T01:45:52.118Z,44.43
2019-03-03T01:48:25.690Z,44.24
2019-03-03T01:51:02.029Z,45.57
2019-03-03T01:53:35.395Z,45.66
2019-03-03T01:56:10.533Z,44.43
2019-03-03T01:58:44.104Z,43.74
2019-03-03T02:01:17.549Z,43.46
2019-03-03T02:03:51.482Z,44.25
2019-03-03T02:06:26.590Z,43.87
2019-03-03T02:09:00.433Z,43.18
2019-03-03T02:11:35.904Z,43.19
2019-03-03T02:14:12.375Z,43.28
2019-03-03T02:16:46.180Z,43.13
2019-03-03T02:19:19.826Z,42.51
2019-03-03T02:27:31.246Z,41.25
2019-03-03T02:30:06.916Z,40.34
2019-03-03T02:32:41.171Z,40.18
2019-03-03T02:35:15.111Z,40.16
2019-03-03T02:37:51.956Z,40.34
2019-03-03T02:40:26.632Z,40.18
2019-03-03T02:48:42.639Z,39.37
2019-03-03T02:51:20.657Z,39.23
2019-03-03T02:53:55.744Z,39.34
2019-03-03T02:56:30.665Z,39.29
2019-03-03T02:59:07.694Z,39.61
2019-03-03T03:01:43.002Z,39.17
2019-03-03T03:04:18.116Z,38.84
2019-03-03T03:06:53.392Z,37.96
2019-03-03T03:09:27.533Z,37.70
2019-03-03T03:12:00.980Z,38.38
2019-03-03T03:14:35.880Z,38.00
2019-03-03T03:17:10.280Z,38.41
2019-03-03T03:19:44.437Z,38.14
2019-03-03T03:22:17.946Z,38.03
2019-03-03T03:24:52.564Z,36.87
2019-03-03T03:27:26.451Z,37.16
2019-03-03T03:29:59.743Z,37.23
2019-03-03T03:32:34.121Z,36.67
2019-03-03T03:35:09.141Z,37.12
2019-03-03T03:37:42.870Z,36.41
2019-03-03T03:40:16.462Z,36.81
2019-03-03T03:42:50.351Z,36.19
2019-03-03T03:45:24.039Z,36.45
2019-03-03T03:47:57.644Z,35.60
2019-03-03T03:50:31.206Z,34.44
2019-03-03T03:53:05.034Z,33.56
2019-03-03T03:55:40.994Z,33.25
2019-03-03T03:58:14.926Z,32.70
2019-03-03T04:00:48.183Z,32.51
2019-03-03T04:03:24.014Z,32.65
2019-03-03T04:05:58.350Z,32.62
2019-03-03T04:08:31.718Z,32.70
2019-03-03T04:11:05.194Z,32.87
2019-03-03T04:13:40.672Z,33.21
2019-03-03T04:16:14.321Z,33.77
2019-03-03T04:18:47.978Z,33.94
2019-03-03T04:21:21.984Z,33.77
2019-03-03T04:23:55.689Z,33.61
2019-03-03T04:26:30.059Z,33.96
2019-03-03T04:29:04.295Z,34.53
2019-03-03T04:31:38.059Z,34.01
2019-03-03T04:34:11.722Z,33.88
2019-03-03T04:36:45.548Z,33.98
2019-03-03T04:39:20.687Z,33.86
2019-03-03T04:41:55.769Z,34.22
2019-03-03T04:44:33.943Z,33.76
2019-03-03T04:47:07.245Z,32.86
2019-03-03T04:49:41.289Z,30.67
2019-03-03T04:52:17.380Z,30.45
2019-03-03T04:54:51.803Z,30.57
2019-03-03T04:57:26.455Z,30.33
2019-03-03T05:00:01.002Z,30.51
2019-03-03T05:02:34.889Z,30.17
2019-03-03T05:05:12.917Z,29.87
2019-03-03T05:07:46.677Z,30.78
2019-03-03T05:10:21.452Z,31.97
2019-03-03T05:12:55.634Z,30.79
2019-03-03T05:15:29.975Z,29.65
2019-03-03T05:18:06.505Z,30.02
2019-03-03T05:20:42.796Z,29.66
2019-03-03T05:23:17.497Z,29.96
2019-03-03T05:25:52.227Z,30.01
2019-03-03T05:28:26.877Z,29.99
2019-03-03T05:31:08.668Z,29.11
2019-03-03T05:33:42.941Z,28.62
2019-03-03T05:36:17.245Z,28.74
2019-03-03T05:38:53.378Z,28.46
2019-03-03T05:41:29.112Z,28.81
2019-03-03T05:44:03.194Z,28.78
2019-03-03T05:46:37.505Z,28.42
2019-03-03T05:49:11.215Z,28.62
2019-03-03T05:51:45.216Z,27.95
2019-03-03T05:54:19.870Z,28.25
2019-03-03T05:56:55.659Z,28.07
2019-03-03T05:59:29.675Z,28.59
2019-03-03T06:02:04.653Z,28.84
2019-03-03T06:04:38.963Z,28.26
2019-03-03T06:07:15.653Z,28.02
2019-03-03T06:09:51.598Z,27.91
2019-03-03T06:12:27.776Z,28.46
2019-03-03T06:15:03.777Z,27.66
2019-03-03T06:17:38.703Z,26.82
2019-03-03T06:20:14.898Z,27.09
2019-03-03T06:22:49.778Z,26.87
2019-03-03T06:25:25.461Z,27.24
2019-03-03T06:28:02.438Z,27.12
2019-03-03T06:30:37.731Z,26.03
2019-03-03T06:33:12.986Z,26.35
2019-03-03T06:35:46.651Z,26.39
2019-03-03T06:38:21.032Z,26.13
2019-03-03T06:40:55.389Z,26.10
2019-03-03T06:43:29.703Z,26.44
2019-03-03T06:46:04.117Z,26.25
2019-03-03T06:48:40.592Z,26.70
2019-03-03T06:51:17.209Z,26.53
2019-03-03T06:53:53.698Z,26.30
2019-03-03T06:56:30.324Z,26.28
2019-03-03T06:59:04.788Z,26.97
2019-03-03T07:01:40.199Z,26.93
2019-03-03T07:04:14.274Z,27.27
2019-03-03T07:06:48.184Z,27.01
2019-03-03T07:09:22.293Z,27.42
2019-03-03T07:11:55.844Z,26.73
2019-03-03T07:14:29.252Z,26.59
2019-03-03T07:17:02.665Z,26.10
2019-03-03T07:19:37.549Z,26.01
2019-03-03T07:22:12.703Z,26.34
2019-03-03T07:24:46.230Z,26.57
2019-03-03T07:27:19.659Z,26.41
2019-03-03T07:29:53.309Z,26.38
2019-03-03T07:32:27.068Z,26.13
2019-03-03T07:35:00.979Z,26.96
2019-03-03T07:37:34.339Z,26.20
2019-03-03T07:40:10.332Z,25.86
2019-03-03T07:42:44.811Z,25.57
2019-03-03T07:45:19.524Z,25.61
2019-03-03T07:47:56.327Z,24.84
2019-03-03T07:50:30.158Z,25.44
2019-03-03T07:53:04.701Z,24.72
2019-03-03T07:55:41.488Z,24.90
2019-03-03T07:58:17.272Z,24.64
2019-03-03T08:00:51.343Z,25.04
2019-03-03T08:03:25.736Z,24.85
2019-03-03T08:05:59.728Z,24.86
2019-03-03T08:08:36.880Z,24.74
2019-03-03T08:11:13.145Z,24.30
2019-03-03T08:13:55.803Z,24.35
2019-03-03T08:16:30.010Z,24.50
2019-03-03T08:19:11.622Z,24.72
2019-03-03T08:21:49.241Z,24.05
2019-03-03T08:24:27.418Z,24.50
2019-03-03T08:27:00.207Z,24.05
2019-03-03T08:29:36.136Z,25.00
2019-03-03T08:32:10.471Z,24.38
2019-03-03T08:34:46.438Z,23.81
2019-03-03T08:37:20.995Z,23.45
2019-03-03T08:39:56.181Z,23.50
2019-03-03T08:42:32.881Z,23.51
2019-03-03T08:45:10.006Z,23.91
2019-03-03T08:47:53.035Z,23.92
2019-03-03T08:50:20.041Z,23.89
2019-03-03T08:52:53.913Z,23.57
2019-03-03T08:55:28.207Z,23.65
2019-03-03T08:58:03.370Z,23.81
2019-03-03T09:00:39.192Z,24.42
2019-03-03T09:03:12.664Z,25.04
2019-03-03T09:05:47.459Z,24.79
2019-03-03T09:08:21.007Z,25.02
2019-03-03T09:10:57.254Z,26.16
2019-03-03T09:13:30.897Z,26.12
2019-03-03T09:16:04.363Z,26.47
2019-03-03T09:18:37.875Z,27.08
2019-03-03T09:21:13.109Z,27.06
2019-03-03T09:23:47.526Z,26.96
2019-03-03T09:26:21.870Z,27.57
2019-03-03T09:28:56.050Z,27.66
2019-03-03T09:31:30.522Z,28.89
2019-03-03T09:34:04.487Z,28.92
2019-03-03T09:36:38.065Z,28.97
2019-03-03T09:39:11.824Z,29.23
2019-03-03T09:41:46.971Z,29.61
2019-03-03T09:44:20.738Z,29.84
2019-03-03T09:46:54.499Z,30.39
2019-03-03T09:49:27.999Z,30.95
2019-03-03T09:52:04.132Z,31.27
2019-03-03T09:54:37.988Z,31.31
2019-03-03T09:57:12.362Z,31.42
2019-03-03T09:59:46.517Z,32.22
2019-03-03T10:02:20.640Z,32.66
2019-03-03T10:04:54.176Z,32.67
2019-03-03T10:07:28.283Z,32.65
2019-03-03T10:10:03.472Z,32.97
2019-03-03T10:12:37.374Z,33.64
2019-03-03T10:15:14.236Z,33.73
2019-03-03T10:17:48.907Z,34.27
2019-03-03T10:20:23.508Z,34.52
2019-03-03T10:22:59.399Z,34.69
2019-03-03T10:25:34.862Z,34.82
2019-03-03T10:28:09.076Z,34.69
2019-03-03T10:30:45.334Z,35.05
2019-03-03T10:33:19.497Z,34.96
2019-03-03T10:35:54.303Z,35.06
2019-03-03T10:38:36.037Z,35.41
2019-03-03T10:41:08.977Z,35.41
2019-03-03T10:43:43.208Z,35.70
2019-03-03T10:46:16.898Z,36.19
2019-03-03T10:48:50.363Z,36.30
2019-03-03T10:51:24.357Z,36.01
2019-03-03T10:53:59.678Z,36.05
2019-03-03T10:56:36.854Z,36.38
2019-03-03T10:59:11.333Z,36.97
2019-03-03T11:01:45.317Z,36.74
2019-03-03T11:04:21.113Z,34.76
2019-03-03T11:06:59.148Z,33.90
2019-03-03T11:09:40.006Z,32.65
2019-03-03T11:12:15.078Z,34.66
2019-03-03T11:14:51.353Z,35.93
2019-03-03T11:17:26.090Z,35.93
2019-03-03T11:20:04.292Z,35.96
2019-03-03T11:22:38.832Z,35.96
2019-03-03T11:25:14.989Z,36.22
2019-03-03T11:27:50.577Z,35.64
2019-03-03T11:30:27.181Z,36.29
2019-03-03T11:33:03.456Z,36.70
2019-03-03T11:35:37.709Z,36.32
2019-03-03T11:38:13.954Z,36.47
2019-03-03T11:40:48.453Z,36.81
2019-03-03T11:43:23.727Z,36.81
2019-03-03T11:45:59.609Z,36.85
2019-03-03T11:48:35.692Z,36.55
2019-03-03T11:51:10.295Z,36.83
2019-03-03T11:53:49.863Z,36.21
2019-03-03T11:56:24.460Z,37.36
2019-03-03T11:58:58.327Z,36.51
2019-03-03T12:01:32.767Z,36.63
2019-03-03T12:04:07.198Z,35.77
2019-03-03T12:06:41.741Z,34.64
2019-03-03T12:09:16.804Z,36.14
2019-03-03T12:11:53.816Z,36.89
2019-03-03T12:14:27.323Z,34.49
2019-03-03T12:17:03.511Z,34.00
2019-03-03T12:19:39.655Z,34.12
2019-03-03T12:22:14.451Z,32.26
2019-03-03T12:27:38.852Z,30.40
2019-03-03T12:30:19.840Z,33.57
2019-03-03T12:32:58.240Z,33.00
2019-03-03T12:35:33.060Z,32.01
2019-03-03T12:38:08.090Z,32.81
2019-03-03T12:40:43.359Z,32.79
2019-03-03T12:43:17.910Z,33.84
2019-03-03T12:45:54.653Z,33.28
2019-03-03T12:48:30.204Z,34.13
2019-03-03T12:51:04.762Z,34.74
2019-03-03T12:53:41.247Z,34.74
2019-03-03T12:56:15.899Z,35.86
2019-03-03T12:58:52.628Z,35.59
2019-03-03T13:01:30.721Z,34.59
2019-03-03T13:04:08.081Z,35.14
2019-03-03T13:06:43.108Z,35.33
2019-03-03T13:09:19.285Z,34.44
2019-03-03T13:11:54.159Z,32.55
2019-03-03T13:14:30.659Z,31.74
2019-03-03T13:17:05.700Z,32.04
2019-03-03T13:19:40.488Z,30.41
2019-03-03T13:22:16.318Z,31.57
2019-03-03T13:24:52.948Z,29.56
2019-03-03T13:27:28.163Z,30.14
2019-03-03T13:30:02.957Z,29.71
2019-03-03T13:32:38.021Z,29.94
2019-03-03T13:35:16.726Z,29.97
2019-03-03T13:37:53.735Z,29.61
2019-03-03T13:40:29.280Z,29.11
2019-03-03T13:43:04.814Z,30.34
2019-03-03T13:45:39.851Z,29.89
2019-03-03T13:48:15.174Z,29.82
2019-03-03T13:50:49.935Z,30.96
2019-03-03T13:53:24.309Z,29.15
2019-03-03T13:55:58.582Z,29.75
2019-03-03T13:58:33.203Z,29.68
2019-03-03T14:01:07.937Z,29.88
2019-03-03T14:03:44.273Z,30.99
2019-03-03T14:06:18.858Z,33.03
2019-03-03T14:08:54.558Z,32.22
2019-03-03T14:11:35.443Z,32.01
2019-03-03T14:14:10.946Z,32.42
2019-03-03T14:16:47.755Z,34.07
2019-03-03T14:19:23.210Z,33.66
2019-03-03T14:22:00.183Z,33.29
2019-03-03T14:24:36.851Z,33.29
2019-03-03T14:27:13.268Z,34.48
2019-03-03T14:29:47.917Z,33.17
2019-03-03T14:32:22.262Z,35.04
2019-03-03T14:34:56.738Z,34.72
2019-03-03T14:37:31.345Z,34.53
2019-03-03T14:40:07.366Z,34.81
2019-03-03T14:42:41.557Z,34.61
2019-03-03T14:45:18.162Z,34.88
2019-03-03T14:47:52.702Z,33.93
2019-03-03T14:50:28.106Z,34.91
2019-03-03T14:53:02.582Z,34.42
2019-03-03T14:55:37.102Z,34.87
2019-03-03T14:58:11.999Z,34.85
2019-03-03T15:00:46.484Z,34.64
2019-03-03T15:03:20.926Z,35.44
2019-03-03T15:05:56.288Z,35.44
2019-03-03T15:08:30.584Z,35.65
2019-03-03T15:11:10.097Z,35.95
2019-03-03T15:13:44.089Z,36.16
2019-03-03T15:16:20.704Z,36.13
2019-03-03T15:18:54.555Z,36.49
2019-03-03T15:21:30.111Z,35.58
2019-03-03T15:24:03.964Z,36.61
2019-03-03T15:26:38.255Z,35.88
2019-03-03T15:29:12.916Z,37.07
2019-03-03T15:31:46.952Z,37.18
2019-03-03T15:34:21.096Z,37.22
2019-03-03T15:36:56.604Z,36.97
2019-03-03T15:39:32.670Z,36.71
2019-03-03T15:42:10.992Z,37.49
2019-03-03T15:44:43.686Z,36.68
2019-03-03T15:47:19.128Z,37.34
2019-03-03T15:49:52.968Z,39.01
2019-03-03T15:52:27.040Z,39.31
2019-03-03T15:55:01.248Z,36.65
2019-03-03T15:57:35.062Z,36.88
2019-03-03T16:00:11.356Z,35.78
2019-03-03T16:02:45.142Z,34.02
2019-03-03T16:05:19.945Z,34.15
2019-03-03T16:07:54.728Z,35.16
2019-03-03T16:10:29.734Z,33.43
2019-03-03T16:13:04.010Z,33.81
2019-03-03T16:15:37.772Z,33.05
2019-03-03T16:18:11.731Z,32.82
2019-03-03T16:20:46.020Z,34.54
2019-03-03T16:23:21.431Z,35.44
2019-03-03T16:25:55.210Z,36.01
2019-03-03T16:28:35.397Z,36.01
2019-03-03T16:31:09.592Z,36.51
2019-03-03T16:33:43.399Z,37.14
2019-03-03T16:36:17.174Z,36.98
2019-03-03T16:38:51.671Z,37.59
2019-03-03T16:41:27.063Z,37.32
2019-03-03T16:44:03.322Z,35.57
2019-03-03T16:46:39.263Z,35.74
2019-03-03T16:49:18.325Z,35.56
2019-03-03T16:51:53.788Z,35.62
2019-03-03T16:54:27.870Z,36.00
2019-03-03T16:57:02.125Z,35.91
2019-03-03T16:59:36.237Z,34.60
2019-03-03T17:02:10.335Z,34.04
2019-03-03T17:04:44.508Z,34.29
2019-03-03T17:07:18.318Z,32.98
2019-03-03T17:09:52.269Z,33.95
2019-03-03T17:12:26.237Z,33.87
2019-03-03T17:15:00.209Z,32.68
2019-03-03T17:17:34.694Z,32.95
2019-03-03T17:20:10.667Z,32.76
2019-03-03T17:22:44.291Z,32.80
2019-03-03T17:25:29.393Z,32.42
2019-03-03T17:28:03.306Z,32.03
2019-03-03T17:30:38.379Z,32.94
2019-03-03T17:33:11.884Z,31.70
2019-03-03T17:35:45.438Z,31.49
2019-03-03T17:38:18.812Z,31.82
2019-03-03T17:40:55.264Z,31.78
2019-03-03T17:43:29.193Z,31.40
2019-03-03T17:46:02.579Z,30.92
2019-03-03T17:48:36.332Z,31.06
2019-03-03T17:51:09.938Z,31.21
2019-03-03T17:53:43.561Z,31.39
2019-03-03T17:56:16.857Z,32.10
2019-03-03T17:58:51.395Z,31.99
2019-03-03T18:01:26.548Z,32.36
2019-03-03T18:03:59.980Z,32.31
2019-03-03T18:06:38.813Z,32.90
2019-03-03T18:09:09.128Z,32.33
2019-03-03T18:11:42.551Z,32.37
2019-03-03T18:14:15.803Z,32.14
2019-03-03T18:16:49.215Z,32.36
2019-03-03T18:19:22.435Z,33.68
2019-03-03T18:21:55.918Z,33.37
2019-03-03T18:24:30.540Z,34.05
2019-03-03T18:27:05.622Z,34.93
2019-03-03T18:29:40.264Z,34.35
2019-03-03T18:32:14.416Z,33.54
2019-03-03T18:34:47.740Z,33.64
2019-03-03T18:37:20.998Z,35.00
2019-03-03T18:39:54.349Z,36.34
2019-03-03T18:42:27.639Z,36.03
2019-03-03T18:45:00.854Z,35.84
2019-03-03T18:47:34.257Z,36.18
2019-03-03T18:50:12.083Z,35.36
2019-03-03T18:52:45.418Z,34.37
2019-03-03T18:55:18.825Z,34.40
2019-03-03T18:57:52.368Z,36.40
2019-03-03T19:00:27.942Z,37.77
2019-03-03T19:03:01.477Z,37.37
2019-03-03T19:05:35.579Z,37.50
2019-03-03T19:08:09.070Z,37.82
2019-03-03T19:10:43.214Z,36.50
2019-03-03T19:13:18.486Z,36.34
2019-03-03T19:15:51.865Z,35.96
2019-03-03T19:18:25.163Z,37.33
2019-03-03T19:20:58.436Z,35.96
2019-03-03T19:23:31.704Z,36.03
2019-03-03T19:26:05.696Z,36.11
2019-03-03T19:28:40.751Z,36.22
2019-03-03T19:31:14.084Z,36.16
2019-03-03T19:33:53.277Z,35.18
2019-03-03T19:36:26.741Z,36.90
2019-03-03T19:39:06.912Z,36.29
2019-03-03T19:41:40.382Z,36.51
2019-03-03T19:44:13.653Z,36.45
2019-03-03T19:46:46.888Z,36.70
2019-03-03T19:49:20.261Z,36.62
2019-03-03T19:51:53.716Z,37.80
2019-03-03T19:54:27.066Z,37.26
2019-03-03T19:57:00.447Z,35.51
2019-03-03T19:59:33.954Z,37.10
2019-03-03T20:02:07.328Z,37.08
2019-03-03T20:04:40.669Z,37.47
2019-03-03T20:07:14.295Z,38.20
2019-03-03T20:09:47.713Z,37.43
2019-03-03T20:12:20.920Z,36.72
2019-03-03T20:14:54.227Z,36.42
2019-03-03T20:17:27.508Z,35.88
2019-03-03T20:20:01.044Z,36.49
2019-03-03T20:22:34.478Z,36.59
2019-03-03T20:25:09.409Z,37.42
2019-03-03T20:27:42.583Z,38.60
2019-03-03T20:30:18.738Z,39.04
2019-03-03T20:32:52.136Z,36.82
2019-03-03T20:35:27.220Z,34.57
2019-03-03T20:38:00.503Z,34.29
2019-03-03T20:40:34.034Z,34.14
2019-03-03T20:43:07.522Z,34.15
2019-03-03T20:45:40.845Z,34.36
2019-03-03T20:48:14.303Z,33.57
2019-03-03T20:50:47.511Z,33.75
2019-03-03T20:53:21.099Z,33.69
2019-03-03T20:55:54.609Z,33.69
2019-03-03T20:58:27.887Z,33.85
2019-03-03T21:04:03.725Z,33.32
2019-03-03T21:06:37.001Z,32.97
2019-03-03T21:09:13.219Z,33.33
2019-03-03T21:11:46.621Z,33.43
2019-03-03T21:14:19.834Z,32.97
2019-03-03T21:16:53.804Z,33.23
2019-03-03T21:19:27.306Z,33.11
2019-03-03T21:22:00.524Z,33.84
2019-03-03T21:24:33.783Z,33.43
2019-03-03T21:27:07.008Z,33.87
2019-03-03T21:29:40.277Z,35.28
2019-03-03T21:32:14.546Z,35.33
2019-03-03T21:34:47.807Z,35.94
2019-03-03T21:37:21.096Z,36.11
2019-03-03T21:39:54.375Z,35.66
2019-03-03T21:42:27.641Z,35.67
2019-03-03T21:45:01.005Z,36.05
2019-03-03T21:47:34.345Z,35.57
2019-03-03T21:50:09.659Z,36.02
2019-03-03T21:52:43.107Z,35.43
2019-03-03T21:55:17.619Z,36.06
2019-03-03T21:57:50.996Z,36.96
2019-03-03T22:00:43.786Z,36.31
2019-03-03T22:03:18.477Z,35.40
2019-03-03T22:05:51.852Z,35.88
2019-03-03T22:08:25.388Z,36.58
2019-03-03T22:10:59.638Z,36.88
2019-03-03T22:13:33.054Z,38.06
2019-03-03T22:16:06.565Z,37.30
2019-03-03T22:18:42.562Z,37.12
2019-03-03T22:21:16.321Z,37.84
2019-03-03T22:23:49.626Z,36.55
2019-03-03T22:26:24.325Z,38.53
2019-03-03T22:28:57.522Z,37.21
2019-03-03T22:31:30.851Z,37.20
2019-03-03T22:34:04.099Z,37.81
2019-03-03T22:36:37.493Z,37.59
2019-03-03T22:39:12.141Z,38.13
2019-03-03T22:41:46.975Z,36.87
2019-03-03T22:44:20.285Z,37.78
2019-03-03T22:46:54.542Z,38.29
2019-03-03T22:49:28.155Z,39.33
2019-03-03T22:52:01.338Z,38.75
2019-03-03T22:54:34.960Z,38.80
2019-03-03T22:57:08.417Z,39.25
2019-03-03T22:59:41.926Z,38.27
2019-03-03T23:02:16.590Z,39.23
2019-03-03T23:04:55.506Z,35.66
2019-03-03T23:07:43.779Z,35.66
2019-03-03T23:10:28.930Z,35.88
2019-03-03T23:13:05.319Z,35.36
2019-03-03T23:15:55.728Z,36.08
2019-03-03T23:19:02.295Z,36.41
2019-03-03T23:21:53.413Z,35.42
2019-03-03T23:24:55.890Z,35.47
2019-03-03T23:27:29.237Z,36.15
2019-03-03T23:30:02.479Z,35.65
2019-03-03T23:32:35.754Z,36.00
2019-03-03T23:35:10.668Z,35.11
2019-03-03T23:37:43.946Z,34.77
2019-03-03T23:40:17.287Z,34.37
2019-03-03T23:42:50.525Z,34.69
2019-03-03T23:45:24.051Z,35.21
2019-03-03T23:47:57.266Z,34.65
2019-03-03T23:50:32.154Z,34.69
2019-03-03T23:53:13.456Z,35.17
2019-03-03T23:55:50.501Z,35.37
2019-03-03T23:58:23.684Z,34.94
